Terminal Aerodrome Forecast
Issued by NWS

Home | Current Version | Previous Version | Text Only | Print | Product List | Glossary On
Versions: 1 2 3 4 5 6 7 8 9 10 11 12 13 14 15 16 17 18 19 20 21 22 23
000
FTUS43 KPAH 251141
TAFCGI
TAF
KCGI 251141Z 2512/2612 VRB03KT 1 1/2SM BR FEW250
      TEMPO 2512/2514 1/2SM FG VV001
     FM251400 36004KT P6SM BKN150
     FM252100 31004KT P6SM VCSH OVC100
     FM252300 33005KT 6SM -SHRA BR OVC050
     FM260600 05005KT 4SM -SHRA BR OVC030
     FM260800 05006KT P6SM OVC020=

USA.gov is the U.S. government's official web portal to all federal, state and local government web resources and services.